sensor_id;sensor_type;location;lat;lon;timestamp;temperature;humidity
10417;DHT22;62605;49.432;8.680;2023-04-06T00:01:57;2.80;1.00
10417;DHT22;62605;49.432;8.680;2023-04-06T00:04:26;2.90;1.00
10417;DHT22;62605;49.432;8.680;2023-04-06T00:06:58;2.90;1.00
10417;DHT22;62605;49.432;8.680;2023-04-06T00:09:25;2.90;1.00
10417;DHT22;62605;49.432;8.680;2023-04-06T00:11:54;3.00;1.00
10417;DHT22;62605;49.432;8.680;2023-04-06T00:14:24;2.90;1.00
10417;DHT22;62605;49.432;8.680;2023-04-06T00:16:51;3.00;1.00
10417;DHT22;62605;49.432;8.680;2023-04-06T00:19:21;3.00;1.00
10417;DHT22;62605;49.432;8.680;2023-04-06T00:21:48;3.00;1.00
10417;DHT22;62605;49.432;8.680;2023-04-06T00:24:16;3.00;1.00
10417;DHT22;62605;49.432;8.680;2023-04-06T00:26:44;3.10;1.00
10417;DHT22;62605;49.432;8.680;2023-04-06T00:29:15;3.10;1.00
10417;DHT22;62605;49.432;8.680;2023-04-06T00:31:42;3.10;1.00
10417;DHT22;62605;49.432;8.680;2023-04-06T00:34:10;3.10;1.00
10417;DHT22;62605;49.432;8.680;2023-04-06T00:36:40;3.10;1.00
10417;DHT22;62605;49.432;8.680;2023-04-06T00:39:09;3.10;1.00
10417;DHT22;62605;49.432;8.680;2023-04-06T00:41:39;3.10;1.00
10417;DHT22;62605;49.432;8.680;2023-04-06T00:44:11;3.20;1.00
10417;DHT22;62605;49.432;8.680;2023-04-06T00:46:40;3.20;1.00
10417;DHT22;62605;49.432;8.680;2023-04-06T00:49:07;3.20;1.00
10417;DHT22;62605;49.432;8.680;2023-04-06T00:51:36;3.20;1.00
10417;DHT22;62605;49.432;8.680;2023-04-06T00:54:05;3.20;1.00
10417;DHT22;62605;49.432;8.680;2023-04-06T00:56:36;3.10;1.00
10417;DHT22;62605;49.432;8.680;2023-04-06T00:59:05;3.10;1.00
10417;DHT22;62605;49.432;8.680;2023-04-06T01:01:32;3.00;1.00
10417;DHT22;62605;49.432;8.680;2023-04-06T01:04:01;3.00;1.00
10417;DHT22;62605;49.432;8.680;2023-04-06T01:06:29;3.00;1.00
10417;DHT22;62605;49.432;8.680;2023-04-06T01:08:57;3.00;1.00
10417;DHT22;62605;49.432;8.680;2023-04-06T01:11:26;3.00;1.00
10417;DHT22;62605;49.432;8.680;2023-04-06T01:13:55;3.00;1.00
10417;DHT22;62605;49.432;8.680;2023-04-06T01:16:23;3.00;1.00
10417;DHT22;62605;49.432;8.680;2023-04-06T01:18:50;2.90;1.00
10417;DHT22;62605;49.432;8.680;2023-04-06T01:21:19;2.80;1.00
10417;DHT22;62605;49.432;8.680;2023-04-06T01:23:53;2.70;1.00
10417;DHT22;62605;49.432;8.680;2023-04-06T01:26:20;2.70;1.00
10417;DHT22;62605;49.432;8.680;2023-04-06T01:28:49;2.60;1.00
10417;DHT22;62605;49.432;8.680;2023-04-06T01:31:16;2.50;1.00
10417;DHT22;62605;49.432;8.680;2023-04-06T01:33:49;2.50;1.00
10417;DHT22;62605;49.432;8.680;2023-04-06T05:27:32;1.20;99.90
10417;DHT22;62605;49.432;8.680;2023-04-06T05:30:22;1.20;99.90
10417;DHT22;62605;49.432;8.680;2023-04-06T05:33:35;1.30;99.90
10417;DHT22;62605;49.432;8.680;2023-04-06T06:26:26;3.50;99.90
10417;DHT22;62605;49.432;8.680;2023-04-06T06:29:32;3.50;99.90
10417;DHT22;62605;49.432;8.680;2023-04-06T06:32:29;3.60;99.90
10417;DHT22;62605;49.432;8.680;2023-04-06T06:51:42;4.40;44.30
10417;DHT22;62605;49.432;8.680;2023-04-06T06:54:29;4.60;13.00
10417;DHT22;62605;49.432;8.680;2023-04-06T06:57:16;4.80;1.00
10417;DHT22;62605;49.432;8.680;2023-04-06T07:00:00;4.80;1.00
10417;DHT22;62605;49.432;8.680;2023-04-06T07:05:17;5.00;1.00
10417;DHT22;62605;49.432;8.680;2023-04-06T07:08:21;5.10;1.00
10417;DHT22;62605;49.432;8.680;2023-04-06T07:10:53;5.20;1.00
10417;DHT22;62605;49.432;8.680;2023-04-06T07:13:26;5.10;1.00
10417;DHT22;62605;49.432;8.680;2023-04-06T07:15:56;5.10;1.00
10417;DHT22;62605;49.432;8.680;2023-04-06T07:18:39;5.10;1.00
10417;DHT22;62605;49.432;8.680;2023-04-06T07:21:10;5.10;1.00
10417;DHT22;62605;49.432;8.680;2023-04-06T07:23:54;5.20;1.00
10417;DHT22;62605;49.432;8.680;2023-04-06T07:26:23;5.30;1.00
10417;DHT22;62605;49.432;8.680;2023-04-06T07:28:59;5.50;1.00
10417;DHT22;62605;49.432;8.680;2023-04-06T07:31:28;5.70;1.00
10417;DHT22;62605;49.432;8.680;2023-04-06T07:34:09;5.90;1.00
10417;DHT22;62605;49.432;8.680;2023-04-06T07:36:51;6.00;1.00
10417;DHT22;62605;49.432;8.680;2023-04-06T07:39:28;6.10;1.00
10417;DHT22;62605;49.432;8.680;2023-04-06T07:41:56;6.20;1.00
10417;DHT22;62605;49.432;8.680;2023-04-06T07:44:24;6.40;1.00
10417;DHT22;62605;49.432;8.680;2023-04-06T07:46:51;6.50;1.00
10417;DHT22;62605;49.432;8.680;2023-04-06T07:49:18;6.50;1.00
10417;DHT22;62605;49.432;8.680;2023-04-06T07:51:46;6.70;1.00
10417;DHT22;62605;49.432;8.680;2023-04-06T07:54:13;6.80;1.00
10417;DHT22;62605;49.432;8.680;2023-04-06T07:56:43;6.80;1.00
10417;DHT22;62605;49.432;8.680;2023-04-06T07:59:10;6.90;1.00
10417;DHT22;62605;49.432;8.680;2023-04-06T08:01:39;7.00;1.00
10417;DHT22;62605;49.432;8.680;2023-04-06T08:04:06;7.00;1.00
10417;DHT22;62605;49.432;8.680;2023-04-06T08:06:34;7.20;1.00
10417;DHT22;62605;49.432;8.680;2023-04-06T08:09:02;7.10;1.00
10417;DHT22;62605;49.432;8.680;2023-04-06T08:11:30;7.30;1.00
10417;DHT22;62605;49.432;8.680;2023-04-06T08:13:59;7.40;1.00
10417;DHT22;62605;49.432;8.680;2023-04-06T08:16:26;7.40;1.00
10417;DHT22;62605;49.432;8.680;2023-04-06T08:18:53;7.40;1.00
10417;DHT22;62605;49.432;8.680;2023-04-06T08:21:21;7.50;1.00
10417;DHT22;62605;49.432;8.680;2023-04-06T08:23:49;7.50;1.00
10417;DHT22;62605;49.432;8.680;2023-04-06T08:26:17;7.60;1.00
10417;DHT22;62605;49.432;8.680;2023-04-06T08:28:44;7.60;1.00
10417;DHT22;62605;49.432;8.680;2023-04-06T08:31:13;7.80;1.00
10417;DHT22;62605;49.432;8.680;2023-04-06T08:33:41;8.00;1.00
10417;DHT22;62605;49.432;8.680;2023-04-06T08:36:09;8.10;1.00
10417;DHT22;62605;49.432;8.680;2023-04-06T08:38:37;8.30;1.00
10417;DHT22;62605;49.432;8.680;2023-04-06T08:41:08;8.30;1.00
10417;DHT22;62605;49.432;8.680;2023-04-06T08:43:42;8.20;1.00
10417;DHT22;62605;49.432;8.680;2023-04-06T08:46:11;8.40;1.00
10417;DHT22;62605;49.432;8.680;2023-04-06T08:48:40;8.40;1.00
10417;DHT22;62605;49.432;8.680;2023-04-06T08:51:08;8.50;1.00
10417;DHT22;62605;49.432;8.680;2023-04-06T08:53:36;8.60;1.00
10417;DHT22;62605;49.432;8.680;2023-04-06T08:56:04;8.70;1.00
10417;DHT22;62605;49.432;8.680;2023-04-06T08:58:35;8.90;1.00
10417;DHT22;62605;49.432;8.680;2023-04-06T09:01:07;9.00;1.00
10417;DHT22;62605;49.432;8.680;2023-04-06T09:03:39;9.00;1.00
10417;DHT22;62605;49.432;8.680;2023-04-06T09:06:07;9.20;1.00
10417;DHT22;62605;49.432;8.680;2023-04-06T09:08:35;9.30;1.00
10417;DHT22;62605;49.432;8.680;2023-04-06T09:11:03;9.30;1.00
10417;DHT22;62605;49.432;8.680;2023-04-06T09:13:31;9.30;1.00
10417;DHT22;62605;49.432;8.680;2023-04-06T09:16:10;9.30;1.00
10417;DHT22;62605;49.432;8.680;2023-04-06T09:18:39;9.20;1.00
10417;DHT22;62605;49.432;8.680;2023-04-06T09:21:07;9.30;1.00
10417;DHT22;62605;49.432;8.680;2023-04-06T09:23:34;9.40;1.00
10417;DHT22;62605;49.432;8.680;2023-04-06T09:26:06;9.50;1.00
10417;DHT22;62605;49.432;8.680;2023-04-06T09:28:47;9.60;1.00
10417;DHT22;62605;49.432;8.680;2023-04-06T09:31:15;9.60;1.00
10417;DHT22;62605;49.432;8.680;2023-04-06T09:33:45;9.80;1.00
10417;DHT22;62605;49.432;8.680;2023-04-06T09:36:13;9.80;1.00
10417;DHT22;62605;49.432;8.680;2023-04-06T09:38:52;9.90;1.00
10417;DHT22;62605;49.432;8.680;2023-04-06T09:41:24;10.00;1.00
10417;DHT22;62605;49.432;8.680;2023-04-06T09:43:52;10.10;1.00
10417;DHT22;62605;49.432;8.680;2023-04-06T09:46:21;9.90;1.00
10417;DHT22;62605;49.432;8.680;2023-04-06T09:48:52;10.00;1.00
10417;DHT22;62605;49.432;8.680;2023-04-06T09:51:20;10.30;1.00
10417;DHT22;62605;49.432;8.680;2023-04-06T09:53:52;10.40;1.00
10417;DHT22;62605;49.432;8.680;2023-04-06T09:56:23;10.30;1.00
10417;DHT22;62605;49.432;8.680;2023-04-06T09:58:56;10.50;1.00
10417;DHT22;62605;49.432;8.680;2023-04-06T10:01:30;10.70;1.00
10417;DHT22;62605;49.432;8.680;2023-04-06T10:04:10;10.70;1.00
10417;DHT22;62605;49.432;8.680;2023-04-06T10:06:40;10.50;1.00
10417;DHT22;62605;49.432;8.680;2023-04-06T10:09:08;10.70;1.00
10417;DHT22;62605;49.432;8.680;2023-04-06T10:11:36;10.70;1.00
10417;DHT22;62605;49.432;8.680;2023-04-06T10:14:04;10.80;1.00
10417;DHT22;62605;49.432;8.680;2023-04-06T10:16:32;11.00;1.00
10417;DHT22;62605;49.432;8.680;2023-04-06T10:19:06;11.10;1.00
10417;DHT22;62605;49.432;8.680;2023-04-06T10:21:35;11.20;1.00
10417;DHT22;62605;49.432;8.680;2023-04-06T10:24:08;11.40;1.00
10417;DHT22;62605;49.432;8.680;2023-04-06T10:26:37;11.50;1.00
10417;DHT22;62605;49.432;8.680;2023-04-06T10:29:06;11.70;1.00
10417;DHT22;62605;49.432;8.680;2023-04-06T10:31:33;11.70;1.00
10417;DHT22;62605;49.432;8.680;2023-04-06T10:34:07;11.70;1.00
10417;DHT22;62605;49.432;8.680;2023-04-06T10:36:35;11.70;1.00
10417;DHT22;62605;49.432;8.680;2023-04-06T10:39:04;11.70;1.00
10417;DHT22;62605;49.432;8.680;2023-04-06T10:41:33;11.70;1.00
10417;DHT22;62605;49.432;8.680;2023-04-06T10:44:02;11.50;1.00
10417;DHT22;62605;49.432;8.680;2023-04-06T10:46:31;11.70;1.00
10417;DHT22;62605;49.432;8.680;2023-04-06T10:49:12;11.80;1.00
10417;DHT22;62605;49.432;8.680;2023-04-06T10:51:39;11.80;1.00
10417;DHT22;62605;49.432;8.680;2023-04-06T10:54:07;11.90;1.00
10417;DHT22;62605;49.432;8.680;2023-04-06T10:56:37;11.90;1.00
10417;DHT22;62605;49.432;8.680;2023-04-06T10:59:05;12.20;1.00
10417;DHT22;62605;49.432;8.680;2023-04-06T11:01:33;12.50;1.00
10417;DHT22;62605;49.432;8.680;2023-04-06T11:04:00;12.40;1.00
10417;DHT22;62605;49.432;8.680;2023-04-06T11:06:30;12.20;1.00
10417;DHT22;62605;49.432;8.680;2023-04-06T11:08:58;12.30;1.00
10417;DHT22;62605;49.432;8.680;2023-04-06T11:11:26;12.40;1.00
10417;DHT22;62605;49.432;8.680;2023-04-06T11:13:55;12.40;1.00
10417;DHT22;62605;49.432;8.680;2023-04-06T11:16:24;12.60;1.00
10417;DHT22;62605;49.432;8.680;2023-04-06T11:18:53;12.50;1.00
10417;DHT22;62605;49.432;8.680;2023-04-06T11:21:35;12.70;1.00
10417;DHT22;62605;49.432;8.680;2023-04-06T11:24:08;12.70;1.00
10417;DHT22;62605;49.432;8.680;2023-04-06T11:26:41;12.40;1.00
10417;DHT22;62605;49.432;8.680;2023-04-06T11:29:09;12.70;1.00
10417;DHT22;62605;49.432;8.680;2023-04-06T11:31:39;12.60;1.00
10417;DHT22;62605;49.432;8.680;2023-04-06T11:34:11;12.70;1.00
10417;DHT22;62605;49.432;8.680;2023-04-06T11:36:55;13.00;1.00
10417;DHT22;62605;49.432;8.680;2023-04-06T11:39:23;13.20;1.00
10417;DHT22;62605;49.432;8.680;2023-04-06T11:41:51;13.20;1.00
10417;DHT22;62605;49.432;8.680;2023-04-06T11:44:31;13.30;1.00
10417;DHT22;62605;49.432;8.680;2023-04-06T11:47:00;13.50;1.00
10417;DHT22;62605;49.432;8.680;2023-04-06T11:49:27;13.40;1.00
10417;DHT22;62605;49.432;8.680;2023-04-06T11:51:57;13.50;1.00
10417;DHT22;62605;49.432;8.680;2023-04-06T11:54:32;13.50;1.00
10417;DHT22;62605;49.432;8.680;2023-04-06T11:57:01;13.30;1.00
10417;DHT22;62605;49.432;8.680;2023-04-06T11:59:28;13.30;1.00
10417;DHT22;62605;49.432;8.680;2023-04-06T12:01:56;13.80;1.00
10417;DHT22;62605;49.432;8.680;2023-04-06T12:04:24;14.00;1.00
10417;DHT22;62605;49.432;8.680;2023-04-06T12:06:51;13.60;1.00
10417;DHT22;62605;49.432;8.680;2023-04-06T12:09:20;13.90;1.00
10417;DHT22;62605;49.432;8.680;2023-04-06T12:11:47;14.50;1.00
10417;DHT22;62605;49.432;8.680;2023-04-06T12:14:14;14.30;1.00
10417;DHT22;62605;49.432;8.680;2023-04-06T12:16:42;14.00;1.00
10417;DHT22;62605;49.432;8.680;2023-04-06T12:19:10;13.60;1.00
10417;DHT22;62605;49.432;8.680;2023-04-06T12:21:37;13.60;1.00
10417;DHT22;62605;49.432;8.680;2023-04-06T12:24:05;13.70;1.00
10417;DHT22;62605;49.432;8.680;2023-04-06T12:26:33;13.50;1.00
10417;DHT22;62605;49.432;8.680;2023-04-06T12:29:02;13.70;1.00
10417;DHT22;62605;49.432;8.680;2023-04-06T12:31:32;13.60;1.00
10417;DHT22;62605;49.432;8.680;2023-04-06T12:34:00;13.60;1.00
10417;DHT22;62605;49.432;8.680;2023-04-06T12:36:28;13.40;1.00
10417;DHT22;62605;49.432;8.680;2023-04-06T12:38:56;13.90;1.00
10417;DHT22;62605;49.432;8.680;2023-04-06T12:41:23;14.30;1.00
10417;DHT22;62605;49.432;8.680;2023-04-06T12:43:53;14.10;1.00
10417;DHT22;62605;49.432;8.680;2023-04-06T12:46:20;14.30;1.00
10417;DHT22;62605;49.432;8.680;2023-04-06T12:48:48;14.30;1.00
10417;DHT22;62605;49.432;8.680;2023-04-06T12:51:15;14.10;1.00
10417;DHT22;62605;49.432;8.680;2023-04-06T12:53:43;14.40;1.00
10417;DHT22;62605;49.432;8.680;2023-04-06T12:56:12;14.50;1.00
10417;DHT22;62605;49.432;8.680;2023-04-06T12:58:39;14.40;1.00
10417;DHT22;62605;49.432;8.680;2023-04-06T13:01:09;14.00;1.00
10417;DHT22;62605;49.432;8.680;2023-04-06T13:03:37;14.30;1.00
10417;DHT22;62605;49.432;8.680;2023-04-06T13:06:04;14.50;1.00
10417;DHT22;62605;49.432;8.680;2023-04-06T13:08:31;14.80;1.00
10417;DHT22;62605;49.432;8.680;2023-04-06T13:10:59;14.90;1.00
10417;DHT22;62605;49.432;8.680;2023-04-06T13:13:27;14.90;1.00
10417;DHT22;62605;49.432;8.680;2023-04-06T13:15:58;15.10;1.00
10417;DHT22;62605;49.432;8.680;2023-04-06T13:18:28;15.20;1.00
10417;DHT22;62605;49.432;8.680;2023-04-06T13:20:57;14.90;1.00
10417;DHT22;62605;49.432;8.680;2023-04-06T13:23:25;14.80;1.00
10417;DHT22;62605;49.432;8.680;2023-04-06T13:26:00;14.60;1.00
10417;DHT22;62605;49.432;8.680;2023-04-06T13:28:28;14.80;1.00
10417;DHT22;62605;49.432;8.680;2023-04-06T13:30:55;14.60;1.00
10417;DHT22;62605;49.432;8.680;2023-04-06T13:33:23;14.80;1.00
10417;DHT22;62605;49.432;8.680;2023-04-06T13:35:52;14.60;1.00
10417;DHT22;62605;49.432;8.680;2023-04-06T13:38:20;14.40;1.00
10417;DHT22;62605;49.432;8.680;2023-04-06T13:40:47;14.60;1.00
10417;DHT22;62605;49.432;8.680;2023-04-06T13:43:15;14.70;1.00
10417;DHT22;62605;49.432;8.680;2023-04-06T13:45:49;14.80;1.00
10417;DHT22;62605;49.432;8.680;2023-04-06T13:48:16;14.70;1.00
10417;DHT22;62605;49.432;8.680;2023-04-06T13:50:44;14.50;1.00
10417;DHT22;62605;49.432;8.680;2023-04-06T13:53:13;14.30;1.00
10417;DHT22;62605;49.432;8.680;2023-04-06T13:55:41;14.60;1.00
10417;DHT22;62605;49.432;8.680;2023-04-06T13:58:08;14.80;1.00
10417;DHT22;62605;49.432;8.680;2023-04-06T14:00:35;14.80;1.00
10417;DHT22;62605;49.432;8.680;2023-04-06T14:03:04;15.00;1.00
10417;DHT22;62605;49.432;8.680;2023-04-06T14:05:33;15.40;1.00
10417;DHT22;62605;49.432;8.680;2023-04-06T14:08:01;15.00;1.00
10417;DHT22;62605;49.432;8.680;2023-04-06T14:10:30;14.90;1.00
10417;DHT22;62605;49.432;8.680;2023-04-06T14:12:57;14.90;1.00
10417;DHT22;62605;49.432;8.680;2023-04-06T14:15:25;14.70;1.00
10417;DHT22;62605;49.432;8.680;2023-04-06T14:17:54;14.40;1.00
10417;DHT22;62605;49.432;8.680;2023-04-06T14:20:22;14.30;1.00
10417;DHT22;62605;49.432;8.680;2023-04-06T14:22:49;14.30;1.00
10417;DHT22;62605;49.432;8.680;2023-04-06T14:25:20;14.20;1.00
10417;DHT22;62605;49.432;8.680;2023-04-06T14:27:49;14.10;1.00
10417;DHT22;62605;49.432;8.680;2023-04-06T14:30:16;14.30;1.00
10417;DHT22;62605;49.432;8.680;2023-04-06T14:32:43;14.50;1.00
10417;DHT22;62605;49.432;8.680;2023-04-06T14:35:10;14.20;1.00
10417;DHT22;62605;49.432;8.680;2023-04-06T14:37:37;14.20;1.00
10417;DHT22;62605;49.432;8.680;2023-04-06T14:40:05;14.20;1.00
10417;DHT22;62605;49.432;8.680;2023-04-06T14:42:32;14.20;1.00
10417;DHT22;62605;49.432;8.680;2023-04-06T14:45:01;14.30;1.00
10417;DHT22;62605;49.432;8.680;2023-04-06T14:47:28;14.60;1.00
10417;DHT22;62605;49.432;8.680;2023-04-06T14:49:55;14.40;1.00
10417;DHT22;62605;49.432;8.680;2023-04-06T14:52:23;14.50;1.00
10417;DHT22;62605;49.432;8.680;2023-04-06T14:54:50;14.40;1.00
10417;DHT22;62605;49.432;8.680;2023-04-06T14:57:17;14.40;1.00
10417;DHT22;62605;49.432;8.680;2023-04-06T14:59:44;14.30;1.00
10417;DHT22;62605;49.432;8.680;2023-04-06T15:02:13;14.30;1.00
10417;DHT22;62605;49.432;8.680;2023-04-06T15:04:42;14.30;1.00
10417;DHT22;62605;49.432;8.680;2023-04-06T15:07:09;14.20;1.00
10417;DHT22;62605;49.432;8.680;2023-04-06T15:09:36;13.90;1.00
10417;DHT22;62605;49.432;8.680;2023-04-06T15:12:03;14.00;1.00
10417;DHT22;62605;49.432;8.680;2023-04-06T15:14:31;13.70;1.00
10417;DHT22;62605;49.432;8.680;2023-04-06T15:16:58;13.60;1.00
10417;DHT22;62605;49.432;8.680;2023-04-06T15:19:27;13.60;1.00
10417;DHT22;62605;49.432;8.680;2023-04-06T15:21:54;13.60;1.00
10417;DHT22;62605;49.432;8.680;2023-04-06T15:24:21;13.50;1.00
10417;DHT22;62605;49.432;8.680;2023-04-06T15:26:48;13.50;1.00
10417;DHT22;62605;49.432;8.680;2023-04-06T15:29:16;13.40;1.00
10417;DHT22;62605;49.432;8.680;2023-04-06T15:31:44;13.50;1.00
10417;DHT22;62605;49.432;8.680;2023-04-06T15:34:11;13.40;1.00
10417;DHT22;62605;49.432;8.680;2023-04-06T15:36:40;13.40;1.00
10417;DHT22;62605;49.432;8.680;2023-04-06T15:39:09;13.40;1.00
10417;DHT22;62605;49.432;8.680;2023-04-06T15:41:38;13.50;1.00
10417;DHT22;62605;49.432;8.680;2023-04-06T15:44:06;13.50;1.00
10417;DHT22;62605;49.432;8.680;2023-04-06T15:46:34;13.50;1.00
10417;DHT22;62605;49.432;8.680;2023-04-06T15:49:02;13.30;1.00
10417;DHT22;62605;49.432;8.680;2023-04-06T15:51:30;13.30;1.00
10417;DHT22;62605;49.432;8.680;2023-04-06T15:53:59;13.30;1.00
10417;DHT22;62605;49.432;8.680;2023-04-06T15:56:26;13.30;1.00
10417;DHT22;62605;49.432;8.680;2023-04-06T15:58:54;13.20;1.00
10417;DHT22;62605;49.432;8.680;2023-04-06T16:01:21;13.20;1.00
10417;DHT22;62605;49.432;8.680;2023-04-06T16:03:51;13.20;1.00
10417;DHT22;62605;49.432;8.680;2023-04-06T16:06:18;13.10;1.00
10417;DHT22;62605;49.432;8.680;2023-04-06T16:08:46;13.10;1.00
10417;DHT22;62605;49.432;8.680;2023-04-06T16:11:15;13.10;1.00
10417;DHT22;62605;49.432;8.680;2023-04-06T16:13:42;13.10;1.00
10417;DHT22;62605;49.432;8.680;2023-04-06T16:16:09;13.10;1.00
10417;DHT22;62605;49.432;8.680;2023-04-06T16:18:37;13.10;1.00
10417;DHT22;62605;49.432;8.680;2023-04-06T16:21:04;13.00;1.00
10417;DHT22;62605;49.432;8.680;2023-04-06T16:23:33;13.00;1.00
10417;DHT22;62605;49.432;8.680;2023-04-06T16:26:01;13.00;1.00
10417;DHT22;62605;49.432;8.680;2023-04-06T16:28:37;13.00;1.00
10417;DHT22;62605;49.432;8.680;2023-04-06T16:31:06;12.90;1.00
10417;DHT22;62605;49.432;8.680;2023-04-06T16:33:33;12.90;1.00
10417;DHT22;62605;49.432;8.680;2023-04-06T16:36:00;12.90;1.00
10417;DHT22;62605;49.432;8.680;2023-04-06T16:38:27;12.90;1.00
10417;DHT22;62605;49.432;8.680;2023-04-06T16:41:00;12.80;1.00
10417;DHT22;62605;49.432;8.680;2023-04-06T16:43:28;12.90;1.00
10417;DHT22;62605;49.432;8.680;2023-04-06T16:45:57;12.80;1.00
10417;DHT22;62605;49.432;8.680;2023-04-06T16:48:24;12.80;1.00
10417;DHT22;62605;49.432;8.680;2023-04-06T16:50:52;12.70;1.00
10417;DHT22;62605;49.432;8.680;2023-04-06T16:53:20;12.70;1.00
10417;DHT22;62605;49.432;8.680;2023-04-06T16:55:48;12.60;1.00
10417;DHT22;62605;49.432;8.680;2023-04-06T16:58:15;12.60;1.00
10417;DHT22;62605;49.432;8.680;2023-04-06T17:00:43;12.50;1.00
10417;DHT22;62605;49.432;8.680;2023-04-06T17:03:12;12.40;1.00
10417;DHT22;62605;49.432;8.680;2023-04-06T17:05:39;12.40;1.00
10417;DHT22;62605;49.432;8.680;2023-04-06T17:08:06;12.40;1.00
10417;DHT22;62605;49.432;8.680;2023-04-06T17:10:33;12.40;1.00
10417;DHT22;62605;49.432;8.680;2023-04-06T17:13:01;12.30;1.00
10417;DHT22;62605;49.432;8.680;2023-04-06T17:15:28;12.30;1.00
10417;DHT22;62605;49.432;8.680;2023-04-06T17:17:56;12.20;1.00
10417;DHT22;62605;49.432;8.680;2023-04-06T17:20:25;12.20;1.00
10417;DHT22;62605;49.432;8.680;2023-04-06T17:22:52;12.10;1.00
10417;DHT22;62605;49.432;8.680;2023-04-06T17:25:20;12.10;1.00
10417;DHT22;62605;49.432;8.680;2023-04-06T17:27:47;12.00;1.00
10417;DHT22;62605;49.432;8.680;2023-04-06T17:30:14;12.00;1.00
10417;DHT22;62605;49.432;8.680;2023-04-06T17:32:42;11.90;1.00
10417;DHT22;62605;49.432;8.680;2023-04-06T17:35:09;11.90;1.00
10417;DHT22;62605;49.432;8.680;2023-04-06T17:37:38;11.80;1.00
10417;DHT22;62605;49.432;8.680;2023-04-06T17:40:09;11.70;1.00
10417;DHT22;62605;49.432;8.680;2023-04-06T17:42:37;11.70;1.00
10417;DHT22;62605;49.432;8.680;2023-04-06T17:45:05;11.70;1.00
10417;DHT22;62605;49.432;8.680;2023-04-06T17:47:32;11.60;1.00
10417;DHT22;62605;49.432;8.680;2023-04-06T17:50:00;11.60;1.00
10417;DHT22;62605;49.432;8.680;2023-04-06T17:52:28;11.50;1.00
10417;DHT22;62605;49.432;8.680;2023-04-06T17:54:57;11.40;1.00
10417;DHT22;62605;49.432;8.680;2023-04-06T17:57:25;11.40;1.00
10417;DHT22;62605;49.432;8.680;2023-04-06T17:59:53;11.40;1.00
10417;DHT22;62605;49.432;8.680;2023-04-06T18:02:20;11.30;1.00
10417;DHT22;62605;49.432;8.680;2023-04-06T18:04:50;11.20;1.00
10417;DHT22;62605;49.432;8.680;2023-04-06T18:07:18;11.20;1.00
10417;DHT22;62605;49.432;8.680;2023-04-06T18:09:45;11.20;1.00
10417;DHT22;62605;49.432;8.680;2023-04-06T18:12:14;11.10;1.00
10417;DHT22;62605;49.432;8.680;2023-04-06T18:14:41;11.20;1.00
10417;DHT22;62605;49.432;8.680;2023-04-06T18:17:10;11.00;1.00
10417;DHT22;62605;49.432;8.680;2023-04-06T18:19:37;11.00;1.00
10417;DHT22;62605;49.432;8.680;2023-04-06T18:22:05;10.90;1.00
10417;DHT22;62605;49.432;8.680;2023-04-06T18:24:35;10.90;1.00
10417;DHT22;62605;49.432;8.680;2023-04-06T18:27:02;10.80;1.00
10417;DHT22;62605;49.432;8.680;2023-04-06T18:29:33;10.80;1.00
10417;DHT22;62605;49.432;8.680;2023-04-06T18:32:03;10.80;1.00
10417;DHT22;62605;49.432;8.680;2023-04-06T18:34:31;10.70;1.00
10417;DHT22;62605;49.432;8.680;2023-04-06T18:37:00;10.70;1.00
10417;DHT22;62605;49.432;8.680;2023-04-06T18:39:27;10.70;1.00
10417;DHT22;62605;49.432;8.680;2023-04-06T18:41:55;10.70;1.00
10417;DHT22;62605;49.432;8.680;2023-04-06T18:44:23;10.70;1.00
10417;DHT22;62605;49.432;8.680;2023-04-06T18:46:52;10.60;1.00
10417;DHT22;62605;49.432;8.680;2023-04-06T18:49:19;10.60;1.00
10417;DHT22;62605;49.432;8.680;2023-04-06T18:51:46;10.50;1.00
10417;DHT22;62605;49.432;8.680;2023-04-06T18:54:13;10.40;1.00
10417;DHT22;62605;49.432;8.680;2023-04-06T18:56:41;10.40;1.00
10417;DHT22;62605;49.432;8.680;2023-04-06T18:59:09;10.20;1.00
10417;DHT22;62605;49.432;8.680;2023-04-06T19:01:36;10.20;1.00
10417;DHT22;62605;49.432;8.680;2023-04-06T19:04:10;10.10;1.00
10417;DHT22;62605;49.432;8.680;2023-04-06T19:06:38;10.00;1.00
10417;DHT22;62605;49.432;8.680;2023-04-06T19:09:06;10.00;1.00
10417;DHT22;62605;49.432;8.680;2023-04-06T19:11:33;9.90;1.00
10417;DHT22;62605;49.432;8.680;2023-04-06T19:14:02;10.00;1.00
10417;DHT22;62605;49.432;8.680;2023-04-06T19:16:30;9.90;1.00
10417;DHT22;62605;49.432;8.680;2023-04-06T19:19:05;9.90;1.00
10417;DHT22;62605;49.432;8.680;2023-04-06T19:21:35;9.80;1.00
10417;DHT22;62605;49.432;8.680;2023-04-06T19:24:02;9.80;1.00
10417;DHT22;62605;49.432;8.680;2023-04-06T19:26:29;9.70;1.00
10417;DHT22;62605;49.432;8.680;2023-04-06T19:28:57;9.70;1.00
10417;DHT22;62605;49.432;8.680;2023-04-06T19:31:24;9.60;1.00
10417;DHT22;62605;49.432;8.680;2023-04-06T19:33:52;9.50;1.00
10417;DHT22;62605;49.432;8.680;2023-04-06T19:36:20;9.50;1.00
10417;DHT22;62605;49.432;8.680;2023-04-06T19:38:52;9.50;1.00
10417;DHT22;62605;49.432;8.680;2023-04-06T19:41:20;9.40;1.00
10417;DHT22;62605;49.432;8.680;2023-04-06T19:43:47;9.30;1.00
10417;DHT22;62605;49.432;8.680;2023-04-06T19:46:14;9.30;1.00
10417;DHT22;62605;49.432;8.680;2023-04-06T19:48:41;9.20;1.00
10417;DHT22;62605;49.432;8.680;2023-04-06T19:51:09;9.10;1.00
10417;DHT22;62605;49.432;8.680;2023-04-06T19:53:36;9.10;1.00
10417;DHT22;62605;49.432;8.680;2023-04-06T19:56:05;9.00;1.00
10417;DHT22;62605;49.432;8.680;2023-04-06T19:58:34;9.00;1.00
10417;DHT22;62605;49.432;8.680;2023-04-06T20:01:02;8.90;1.00
10417;DHT22;62605;49.432;8.680;2023-04-06T20:03:30;8.90;1.00
10417;DHT22;62605;49.432;8.680;2023-04-06T20:05:58;8.90;37.00
10417;DHT22;62605;49.432;8.680;2023-04-06T20:08:25;8.80;92.80
10417;DHT22;62605;49.432;8.680;2023-04-06T20:10:59;8.80;99.90
10417;DHT22;62605;49.432;8.680;2023-04-06T20:13:28;8.70;99.90
10417;DHT22;62605;49.432;8.680;2023-04-06T20:15:55;8.60;1.00
10417;DHT22;62605;49.432;8.680;2023-04-06T20:18:23;8.50;40.70
10417;DHT22;62605;49.432;8.680;2023-04-06T20:20:51;8.50;1.00
10417;DHT22;62605;49.432;8.680;2023-04-06T20:23:19;8.50;99.90
10417;DHT22;62605;49.432;8.680;2023-04-06T20:25:47;8.40;1.00
10417;DHT22;62605;49.432;8.680;2023-04-06T20:28:14;8.50;1.00
10417;DHT22;62605;49.432;8.680;2023-04-06T20:30:43;8.40;1.00
10417;DHT22;62605;49.432;8.680;2023-04-06T20:33:10;8.40;99.90
10417;DHT22;62605;49.432;8.680;2023-04-06T20:35:37;8.40;99.90
10417;DHT22;62605;49.432;8.680;2023-04-06T20:38:08;8.30;99.90
10417;DHT22;62605;49.432;8.680;2023-04-06T20:40:36;8.30;99.90
10417;DHT22;62605;49.432;8.680;2023-04-06T20:43:04;8.20;99.90
10417;DHT22;62605;49.432;8.680;2023-04-06T20:45:34;8.10;99.90
10417;DHT22;62605;49.432;8.680;2023-04-06T20:48:05;8.20;1.00
10417;DHT22;62605;49.432;8.680;2023-04-06T20:50:36;8.20;99.90
10417;DHT22;62605;49.432;8.680;2023-04-06T20:53:03;8.20;1.00
10417;DHT22;62605;49.432;8.680;2023-04-06T20:55:31;8.10;1.00
10417;DHT22;62605;49.432;8.680;2023-04-06T20:57:58;8.10;1.00
10417;DHT22;62605;49.432;8.680;2023-04-06T21:00:27;8.00;99.90
10417;DHT22;62605;49.432;8.680;2023-04-06T21:02:54;8.00;99.90
10417;DHT22;62605;49.432;8.680;2023-04-06T21:05:23;8.00;99.90
10417;DHT22;62605;49.432;8.680;2023-04-06T21:07:51;7.90;88.30